Farm Ridge, Illinois
Current Conditions -  °F | °C
As of 4:35 AM on Sunday 21 Dec 2014 (Local Time) from KVYS Reporting Station
Overcast Overcast  
Wind Chill: 27°   Ceiling: 2500
Heat Index: 34°   Visibility: 7mi
Dew Point: 31°   Wind: 9mph
Humidity: 88%   Direction: 170°S
Pressure: 30.19"   Gusts: NA
Location:  41.2419°N, 88.7998°W
Report Text: KVYS 211035Z AUTO 17008KT 7SM BKN025 OVC040 01/00 A3019 RMK AO2 T00131005
Loading
Personal Weather Stations






























Interactive Weather Map New forecast layout! Learn more

10-Day Weather Forecast

Advertisements
Track Severe Weather on mobile